Fritch, Texas
Current Conditions -  °F | °C
As of 3:51 PM on Thursday 27 Nov 2014 (Local Time) from KBGD Reporting Station
Clear Clear  
Wind Chill: 61°   Ceiling: Unl
Heat Index: 61°   Visibility: 10mi
Dew Point: 28°   Wind: 15mph
Humidity: 29%   Direction: 200°SSW
Pressure: 30.22"   Gusts: 25mph
Location:  35.64°N, 101.6°W
Report Text: KBGD 272151Z AUTO 20013G22KT 10SM CLR 16/M02 A3022 RMK AO2 SLP231 T01611022
Loading
Personal Weather Stations






























Interactive Weather Map New forecast layout! Learn more

10-Day Weather Forecast

Advertisements
Track Severe Weather on mobile